BTK6272 WIII-WAMM
Flight info
| Callsign | BTK6272 |
|---|---|
| Flight time | 2h 53m |
| Altitude | 35000 |
| Route | EGUKO T9 LAMUD/N0460F370 T9 ARITO |
| Aircraft | A320/M-SDE3FGHIRWY/LB1 |
Departure
| Time | 2026-05-05 01:34 |
|---|---|
| Airport | Soekarno-Hatta International Airport (WIII) |
Arrival
| Time | 2026-05-05 04:27 |
|---|---|
| Airport | Sam Ratulangi International Airport (WAMM) |
| Time | Latitude | Longitude | Altitude | Speed | Heading |
|---|---|---|---|---|---|
| 2026-05-05 01:15 | -6.12129 | 106.65089 | 38 ft | 0 kts | 107° |
| 2026-05-05 01:24 | -6.12127 | 106.65084 | 38 ft | 3 kts | 107° |
| 2026-05-05 01:24 | -6.12120 | 106.65058 | 36 ft | 4 kts | 103° |
| 2026-05-05 01:24 | -6.12114 | 106.65033 | 35 ft | 2 kts | 105° |
| 2026-05-05 01:25 | -6.12109 | 106.65010 | 38 ft | 4 kts | 86° |
| 2026-05-05 01:25 | -6.12116 | 106.64985 | 35 ft | 4 kts | 50° |
| 2026-05-05 01:25 | -6.12126 | 106.64976 | 34 ft | 1 kts | 42° |
| 2026-05-05 01:25 | -6.12126 | 106.64975 | 34 ft | 0 kts | 42° |
| 2026-05-05 01:27 | -6.12117 | 106.64983 | 35 ft | 4 kts | 42° |
| 2026-05-05 01:28 | -6.12078 | 106.64999 | 38 ft | 9 kts | 10° |
| 2026-05-05 01:28 | -6.12003 | 106.65013 | 37 ft | 13 kts | 10° |
| 2026-05-05 01:28 | -6.11903 | 106.65000 | 38 ft | 9 kts | 339° |
| 2026-05-05 01:28 | -6.11836 | 106.65013 | 38 ft | 13 kts | 63° |
| 2026-05-05 01:29 | -6.11796 | 106.65114 | 37 ft | 18 kts | 68° |
| 2026-05-05 01:29 | -6.11744 | 106.65244 | 38 ft | 22 kts | 68° |
| 2026-05-05 01:29 | -6.11684 | 106.65399 | 35 ft | 25 kts | 68° |
| 2026-05-05 01:29 | -6.11617 | 106.65562 | 37 ft | 26 kts | 68° |
| 2026-05-05 01:30 | -6.11549 | 106.65734 | 37 ft | 27 kts | 68° |
| 2026-05-05 01:30 | -6.11479 | 106.65910 | 35 ft | 28 kts | 68° |
| 2026-05-05 01:30 | -6.11415 | 106.66070 | 37 ft | 23 kts | 68° |
| 2026-05-05 01:30 | -6.11355 | 106.66223 | 38 ft | 24 kts | 68° |
| 2026-05-05 01:31 | -6.11290 | 106.66382 | 36 ft | 25 kts | 68° |
| 2026-05-05 01:31 | -6.11225 | 106.66547 | 37 ft | 26 kts | 68° |
| 2026-05-05 01:31 | -6.11155 | 106.66719 | 37 ft | 27 kts | 68° |
| 2026-05-05 01:31 | -6.11092 | 106.66876 | 37 ft | 23 kts | 68° |
| 2026-05-05 01:32 | -6.11027 | 106.66974 | 37 ft | 13 kts | 357° |
| 2026-05-05 01:32 | -6.10967 | 106.66954 | 37 ft | 8 kts | 329° |
| 2026-05-05 01:32 | -6.10935 | 106.66911 | 36 ft | 8 kts | 302° |
| 2026-05-05 01:32 | -6.10910 | 106.66866 | 36 ft | 8 kts | 284° |
| 2026-05-05 01:33 | -6.10944 | 106.66773 | 35 ft | 26 kts | 249° |
| 2026-05-05 01:33 | -6.11074 | 106.66433 | 36 ft | 86 kts | 248° |
| 2026-05-05 01:33 | -6.11374 | 106.65680 | 37 ft | 144 kts | 248° |
| 2026-05-05 01:33 | -6.11805 | 106.64631 | 302 ft | 167 kts | 249° |
| 2026-05-05 01:34 | -6.12184 | 106.63547 | 1021 ft | 163 kts | 252° |
| 2026-05-05 01:34 | -6.12468 | 106.62421 | 1521 ft | 173 kts | 271° |
| 2026-05-05 01:34 | -6.12187 | 106.61213 | 1871 ft | 187 kts | 292° |
| 2026-05-05 01:34 | -6.11708 | 106.59908 | 2178 ft | 207 kts | 291° |
| 2026-05-05 01:35 | -6.11206 | 106.58488 | 2402 ft | 232 kts | 290° |
| 2026-05-05 01:35 | -6.10646 | 106.56850 | 2757 ft | 256 kts | 289° |
| 2026-05-05 01:35 | -6.10068 | 106.55106 | 3237 ft | 274 kts | 289° |
| 2026-05-05 01:35 | -6.09363 | 106.53306 | 3986 ft | 279 kts | 303° |
| 2026-05-05 01:36 | -6.08026 | 106.51919 | 4764 ft | 279 kts | 330° |
| 2026-05-05 01:36 | -6.06196 | 106.51240 | 5565 ft | 278 kts | 355° |
| 2026-05-05 01:36 | -6.04308 | 106.51395 | 6333 ft | 278 kts | 19° |
| 2026-05-05 01:36 | -6.02565 | 106.52279 | 7083 ft | 279 kts | 38° |
| 2026-05-05 01:37 | -6.01230 | 106.53649 | 7799 ft | 280 kts | 56° |
| 2026-05-05 01:37 | -6.00370 | 106.55407 | 8528 ft | 283 kts | 74° |
| 2026-05-05 01:37 | -6.00020 | 106.57356 | 9240 ft | 286 kts | 83° |
| 2026-05-05 01:37 | -5.99751 | 106.59349 | 9958 ft | 289 kts | 82° |
| 2026-05-05 01:38 | -5.99470 | 106.61385 | 10375 ft | 304 kts | 82° |
| 2026-05-05 01:38 | -5.99163 | 106.63566 | 10539 ft | 327 kts | 82° |
| 2026-05-05 01:38 | -5.98835 | 106.65893 | 10756 ft | 345 kts | 82° |
| 2026-05-05 01:38 | -5.98492 | 106.68336 | 11281 ft | 351 kts | 82° |
| 2026-05-05 01:39 | -5.98155 | 106.70739 | 11891 ft | 354 kts | 82° |
| 2026-05-05 01:39 | -5.97810 | 106.73192 | 12512 ft | 356 kts | 82° |
| 2026-05-05 01:39 | -5.97464 | 106.75670 | 13127 ft | 359 kts | 82° |
| 2026-05-05 01:39 | -5.97116 | 106.78160 | 13749 ft | 362 kts | 82° |
| 2026-05-05 01:40 | -5.96760 | 106.80710 | 14263 ft | 365 kts | 82° |
| 2026-05-05 01:40 | -5.96404 | 106.83243 | 14781 ft | 368 kts | 81° |
| 2026-05-05 01:40 | -5.95842 | 106.85762 | 15266 ft | 371 kts | 76° |
| 2026-05-05 01:40 | -5.95225 | 106.88255 | 15761 ft | 374 kts | 76° |
| 2026-05-05 01:41 | -5.94601 | 106.90806 | 16252 ft | 377 kts | 77° |
| 2026-05-05 01:41 | -5.93978 | 106.93377 | 16740 ft | 380 kts | 77° |
| 2026-05-05 01:41 | -5.93299 | 106.95952 | 17209 ft | 384 kts | 70° |
| 2026-05-05 01:41 | -5.92103 | 106.98359 | 17666 ft | 388 kts | 56° |
| 2026-05-05 01:42 | -5.90332 | 107.00421 | 18124 ft | 393 kts | 43° |
| 2026-05-05 01:42 | -5.88094 | 107.02006 | 18515 ft | 397 kts | 28° |
| 2026-05-05 01:42 | -5.85527 | 107.03068 | 18899 ft | 401 kts | 21° |
| 2026-05-05 01:42 | -5.82900 | 107.04031 | 19288 ft | 403 kts | 21° |
| 2026-05-05 01:43 | -5.80257 | 107.05009 | 19677 ft | 406 kts | 21° |
| 2026-05-05 01:43 | -5.77602 | 107.05998 | 20067 ft | 408 kts | 21° |
| 2026-05-05 01:43 | -5.74934 | 107.06994 | 20451 ft | 410 kts | 22° |
| 2026-05-05 01:43 | -5.72256 | 107.08007 | 20831 ft | 412 kts | 24° |
| 2026-05-05 01:44 | -5.69732 | 107.09373 | 21185 ft | 413 kts | 36° |
| 2026-05-05 01:44 | -5.67550 | 107.11233 | 21546 ft | 413 kts | 48° |
| 2026-05-05 01:44 | -5.65792 | 107.13512 | 21908 ft | 414 kts | 59° |
| 2026-05-05 01:44 | -5.64532 | 107.16109 | 22259 ft | 415 kts | 71° |
| 2026-05-05 01:45 | -5.63616 | 107.18858 | 22611 ft | 417 kts | 72° |
| 2026-05-05 01:45 | -5.62687 | 107.21627 | 22959 ft | 419 kts | 72° |
| 2026-05-05 01:45 | -5.62063 | 107.23466 | 23187 ft | 421 kts | 72° |
| 2026-05-05 01:45 | -5.60791 | 107.27198 | 23635 ft | 424 kts | 72° |
| 2026-05-05 01:46 | -5.59836 | 107.30003 | 23925 ft | 426 kts | 71° |
| 2026-05-05 01:46 | -5.59203 | 107.31867 | 24124 ft | 427 kts | 72° |
| 2026-05-05 01:46 | -5.58245 | 107.34696 | 24414 ft | 429 kts | 72° |
| 2026-05-05 01:46 | -5.57285 | 107.37536 | 24696 ft | 430 kts | 72° |
| 2026-05-05 01:47 | -5.56323 | 107.40386 | 24981 ft | 432 kts | 72° |
| 2026-05-05 01:47 | -5.55354 | 107.43249 | 25257 ft | 434 kts | 71° |
| 2026-05-05 01:47 | -5.54381 | 107.46121 | 25529 ft | 435 kts | 71° |
| 2026-05-05 01:47 | -5.53402 | 107.49004 | 25784 ft | 437 kts | 71° |
| 2026-05-05 01:48 | -5.52420 | 107.51899 | 26073 ft | 439 kts | 71° |
| 2026-05-05 01:48 | -5.51435 | 107.54803 | 26358 ft | 441 kts | 71° |
| 2026-05-05 01:48 | -5.50447 | 107.57721 | 26625 ft | 442 kts | 71° |
| 2026-05-05 01:48 | -5.49457 | 107.60649 | 26908 ft | 444 kts | 71° |
| 2026-05-05 01:49 | -5.48461 | 107.63589 | 27163 ft | 446 kts | 71° |
| 2026-05-05 01:49 | -5.47461 | 107.66541 | 27423 ft | 447 kts | 71° |
| 2026-05-05 01:49 | -5.46458 | 107.69502 | 27679 ft | 449 kts | 71° |
| 2026-05-05 01:49 | -5.45450 | 107.72475 | 27927 ft | 451 kts | 71° |
| 2026-05-05 01:50 | -5.44440 | 107.75453 | 28160 ft | 452 kts | 71° |
| 2026-05-05 01:50 | -5.43303 | 107.78403 | 28386 ft | 454 kts | 64° |
| 2026-05-05 01:50 | -5.41708 | 107.81143 | 28620 ft | 456 kts | 55° |
| 2026-05-05 01:50 | -5.39866 | 107.83740 | 28839 ft | 458 kts | 55° |
| 2026-05-05 01:51 | -5.38025 | 107.86353 | 29066 ft | 459 kts | 55° |
| 2026-05-05 01:51 | -5.36185 | 107.88980 | 29294 ft | 461 kts | 56° |
| 2026-05-05 01:51 | -5.34343 | 107.91616 | 29509 ft | 462 kts | 56° |
| 2026-05-05 01:51 | -5.32495 | 107.94261 | 29732 ft | 464 kts | 56° |
| 2026-05-05 01:52 | -5.30639 | 107.96913 | 29960 ft | 465 kts | 55° |
| 2026-05-05 01:52 | -5.28781 | 107.99563 | 30241 ft | 464 kts | 55° |
| 2026-05-05 01:52 | -5.26927 | 108.02204 | 30518 ft | 462 kts | 55° |
| 2026-05-05 01:52 | -5.25076 | 108.04841 | 30797 ft | 462 kts | 55° |
| 2026-05-05 01:53 | -5.23230 | 108.07472 | 31064 ft | 461 kts | 55° |
| 2026-05-05 01:53 | -5.21386 | 108.10100 | 31327 ft | 460 kts | 55° |
| 2026-05-05 01:53 | -5.19544 | 108.12729 | 31592 ft | 460 kts | 55° |
| 2026-05-05 01:53 | -5.17705 | 108.15354 | 31850 ft | 460 kts | 55° |
| 2026-05-05 01:54 | -5.15868 | 108.17972 | 32118 ft | 459 kts | 55° |
| 2026-05-05 01:54 | -5.14028 | 108.20593 | 32388 ft | 458 kts | 55° |
| 2026-05-05 01:54 | -5.12195 | 108.23204 | 32660 ft | 458 kts | 55° |
| 2026-05-05 01:54 | -5.10363 | 108.25813 | 32931 ft | 458 kts | 55° |
| 2026-05-05 01:55 | -5.08528 | 108.28424 | 33198 ft | 457 kts | 55° |
| 2026-05-05 01:55 | -5.06696 | 108.31026 | 33470 ft | 457 kts | 55° |
| 2026-05-05 01:55 | -5.04866 | 108.33627 | 33752 ft | 456 kts | 55° |
| 2026-05-05 01:55 | -5.03039 | 108.36226 | 34008 ft | 456 kts | 55° |
| 2026-05-05 01:56 | -5.01213 | 108.38826 | 34246 ft | 455 kts | 54° |
| 2026-05-05 01:56 | -4.99395 | 108.41414 | 34492 ft | 454 kts | 55° |
| 2026-05-05 01:56 | -4.97602 | 108.43972 | 34730 ft | 454 kts | 55° |
| 2026-05-05 01:56 | -4.95790 | 108.46561 | 34887 ft | 454 kts | 55° |
| 2026-05-05 01:57 | -4.92158 | 108.51734 | 34932 ft | 453 kts | 54° |
| 2026-05-05 01:57 | -4.88522 | 108.56893 | 34933 ft | 453 kts | 54° |
| 2026-05-05 01:58 | -4.84888 | 108.62055 | 34934 ft | 453 kts | 54° |
| 2026-05-05 01:58 | -4.81261 | 108.67219 | 34931 ft | 453 kts | 54° |
| 2026-05-05 01:59 | -4.77635 | 108.72390 | 34928 ft | 453 kts | 54° |
| 2026-05-05 01:59 | -4.73997 | 108.77553 | 34930 ft | 453 kts | 54° |
| 2026-05-05 02:00 | -4.70578 | 108.82854 | 34929 ft | 454 kts | 64° |
| 2026-05-05 02:00 | -4.67880 | 108.88575 | 34930 ft | 454 kts | 64° |
| 2026-05-05 02:01 | -4.65163 | 108.94286 | 34926 ft | 454 kts | 64° |
| 2026-05-05 02:01 | -4.62440 | 108.99998 | 34930 ft | 454 kts | 64° |
| 2026-05-05 02:02 | -4.59714 | 109.05715 | 34928 ft | 454 kts | 64° |
| 2026-05-05 02:02 | -4.56998 | 109.11433 | 34927 ft | 454 kts | 64° |
| 2026-05-05 02:03 | -4.54274 | 109.17147 | 34932 ft | 454 kts | 64° |
| 2026-05-05 02:03 | -4.51554 | 109.22856 | 34928 ft | 454 kts | 64° |
| 2026-05-05 02:04 | -4.48840 | 109.28567 | 34931 ft | 454 kts | 64° |
| 2026-05-05 02:04 | -4.46120 | 109.34277 | 34937 ft | 454 kts | 64° |
| 2026-05-05 02:05 | -4.43406 | 109.39978 | 34935 ft | 454 kts | 64° |
| 2026-05-05 02:05 | -4.40688 | 109.45687 | 34933 ft | 454 kts | 64° |
| 2026-05-05 02:06 | -4.37967 | 109.51391 | 34930 ft | 454 kts | 64° |
| 2026-05-05 02:06 | -4.35259 | 109.57050 | 34932 ft | 454 kts | 64° |
| 2026-05-05 02:07 | -4.32542 | 109.62758 | 34930 ft | 454 kts | 64° |
| 2026-05-05 02:07 | -4.29827 | 109.68456 | 34932 ft | 453 kts | 64° |
| 2026-05-05 02:08 | -4.27105 | 109.74158 | 34931 ft | 453 kts | 64° |
| 2026-05-05 02:08 | -4.24380 | 109.79852 | 34929 ft | 453 kts | 64° |
| 2026-05-05 02:09 | -4.21658 | 109.85548 | 34931 ft | 453 kts | 64° |
| 2026-05-05 02:09 | -4.18938 | 109.91246 | 34928 ft | 453 kts | 64° |
| 2026-05-05 02:10 | -4.16225 | 109.96943 | 34929 ft | 453 kts | 64° |
| 2026-05-05 02:10 | -4.13508 | 110.02638 | 34929 ft | 453 kts | 64° |
| 2026-05-05 02:11 | -4.10788 | 110.08328 | 34928 ft | 453 kts | 64° |
| 2026-05-05 02:11 | -4.08064 | 110.14019 | 34922 ft | 453 kts | 64° |
| 2026-05-05 02:12 | -4.03984 | 110.22552 | 34924 ft | 453 kts | 64° |
| 2026-05-05 02:13 | -4.01262 | 110.28245 | 34924 ft | 453 kts | 64° |
| 2026-05-05 02:13 | -3.98544 | 110.33934 | 34927 ft | 453 kts | 64° |
| 2026-05-05 02:14 | -3.95821 | 110.39620 | 34926 ft | 453 kts | 64° |
| 2026-05-05 02:14 | -3.93100 | 110.45306 | 34923 ft | 453 kts | 64° |
| 2026-05-05 02:15 | -3.90379 | 110.50995 | 34923 ft | 453 kts | 64° |
| 2026-05-05 02:15 | -3.87669 | 110.56641 | 34919 ft | 453 kts | 64° |
| 2026-05-05 02:16 | -3.84944 | 110.62327 | 34922 ft | 453 kts | 64° |
| 2026-05-05 02:16 | -3.82230 | 110.68023 | 34924 ft | 453 kts | 64° |
| 2026-05-05 02:17 | -3.79514 | 110.73709 | 34920 ft | 453 kts | 64° |
| 2026-05-05 02:17 | -3.76781 | 110.79394 | 34919 ft | 453 kts | 64° |
| 2026-05-05 02:18 | -3.74051 | 110.85080 | 34920 ft | 453 kts | 64° |
| 2026-05-05 02:18 | -3.71328 | 110.90764 | 34918 ft | 453 kts | 64° |
| 2026-05-05 02:19 | -3.68605 | 110.96448 | 34919 ft | 453 kts | 64° |
| 2026-05-05 02:19 | -3.65882 | 111.02139 | 34919 ft | 453 kts | 64° |
| 2026-05-05 02:20 | -3.63160 | 111.07815 | 34924 ft | 453 kts | 64° |
| 2026-05-05 02:20 | -3.60425 | 111.13497 | 34926 ft | 453 kts | 64° |
| 2026-05-05 02:21 | -3.57706 | 111.19174 | 34923 ft | 452 kts | 64° |
| 2026-05-05 02:21 | -3.54991 | 111.24853 | 34924 ft | 452 kts | 64° |
| 2026-05-05 02:22 | -3.52266 | 111.30527 | 34923 ft | 452 kts | 64° |
| 2026-05-05 02:22 | -3.49542 | 111.36194 | 34924 ft | 452 kts | 64° |
| 2026-05-05 02:23 | -3.46815 | 111.41864 | 34922 ft | 452 kts | 64° |
| 2026-05-05 02:23 | -3.44113 | 111.47491 | 34921 ft | 452 kts | 64° |
| 2026-05-05 02:24 | -3.41389 | 111.53154 | 34924 ft | 452 kts | 64° |
| 2026-05-05 02:24 | -3.38665 | 111.58820 | 34922 ft | 452 kts | 64° |
| 2026-05-05 02:25 | -3.35941 | 111.64487 | 34919 ft | 452 kts | 64° |
| 2026-05-05 02:25 | -3.33225 | 111.70149 | 34919 ft | 451 kts | 64° |
| 2026-05-05 02:26 | -3.30508 | 111.75808 | 34921 ft | 451 kts | 64° |
| 2026-05-05 02:26 | -3.27793 | 111.81471 | 34925 ft | 451 kts | 64° |
| 2026-05-05 02:27 | -3.25073 | 111.87122 | 34922 ft | 451 kts | 64° |
| 2026-05-05 02:27 | -3.22352 | 111.92768 | 34925 ft | 450 kts | 64° |
| 2026-05-05 02:28 | -3.19637 | 111.98412 | 34925 ft | 450 kts | 64° |
| 2026-05-05 02:28 | -3.16925 | 112.04050 | 34927 ft | 450 kts | 64° |
| 2026-05-05 02:29 | -3.14210 | 112.09685 | 34927 ft | 449 kts | 64° |
| 2026-05-05 02:29 | -3.11504 | 112.15319 | 34926 ft | 449 kts | 64° |
| 2026-05-05 02:30 | -3.08822 | 112.20908 | 34922 ft | 449 kts | 64° |
| 2026-05-05 02:30 | -3.06087 | 112.26575 | 34918 ft | 449 kts | 64° |
| 2026-05-05 02:31 | -3.03399 | 112.32218 | 34916 ft | 449 kts | 66° |
| 2026-05-05 02:31 | -3.01048 | 112.37966 | 34916 ft | 450 kts | 69° |
| 2026-05-05 02:32 | -2.98852 | 112.43826 | 34912 ft | 450 kts | 69° |
| 2026-05-05 02:32 | -2.96614 | 112.49675 | 34907 ft | 450 kts | 69° |
| 2026-05-05 02:33 | -2.94305 | 112.55503 | 34910 ft | 451 kts | 68° |
| 2026-05-05 02:33 | -2.91981 | 112.61327 | 34908 ft | 451 kts | 68° |
| 2026-05-05 02:34 | -2.90061 | 112.66178 | 34911 ft | 451 kts | 68° |
| 2026-05-05 02:34 | -2.87756 | 112.72016 | 34913 ft | 451 kts | 68° |
| 2026-05-05 02:35 | -2.85444 | 112.77860 | 34909 ft | 452 kts | 68° |
| 2026-05-05 02:35 | -2.83133 | 112.83699 | 34912 ft | 452 kts | 68° |
| 2026-05-05 02:36 | -2.80824 | 112.89538 | 34918 ft | 452 kts | 68° |
| 2026-05-05 02:36 | -2.78512 | 112.95382 | 34915 ft | 452 kts | 68° |
| 2026-05-05 02:37 | -2.76203 | 113.01222 | 34919 ft | 451 kts | 69° |
| 2026-05-05 02:37 | -2.73888 | 113.07060 | 34920 ft | 451 kts | 68° |
| 2026-05-05 02:38 | -2.71581 | 113.12897 | 34918 ft | 451 kts | 69° |
| 2026-05-05 02:38 | -2.69271 | 113.18728 | 34918 ft | 451 kts | 68° |
| 2026-05-05 02:39 | -2.66961 | 113.24566 | 34921 ft | 451 kts | 69° |
| 2026-05-05 02:39 | -2.64652 | 113.30396 | 34921 ft | 451 kts | 68° |
| 2026-05-05 02:40 | -2.62340 | 113.36229 | 34919 ft | 451 kts | 69° |
| 2026-05-05 02:40 | -2.59747 | 113.41927 | 34917 ft | 451 kts | 58° |
| 2026-05-05 02:41 | -2.56299 | 113.47171 | 34911 ft | 451 kts | 57° |
| 2026-05-05 02:41 | -2.52845 | 113.52420 | 34911 ft | 452 kts | 57° |
| 2026-05-05 02:42 | -2.49396 | 113.57670 | 34906 ft | 452 kts | 57° |
| 2026-05-05 02:42 | -2.45948 | 113.62920 | 34912 ft | 452 kts | 57° |
| 2026-05-05 02:43 | -2.42497 | 113.68178 | 34909 ft | 452 kts | 57° |
| 2026-05-05 02:43 | -2.39042 | 113.73435 | 34910 ft | 452 kts | 57° |
| 2026-05-05 02:44 | -2.35583 | 113.78692 | 34906 ft | 453 kts | 57° |
| 2026-05-05 02:44 | -2.32123 | 113.83950 | 34904 ft | 453 kts | 57° |
| 2026-05-05 02:45 | -2.28664 | 113.89215 | 34909 ft | 453 kts | 57° |
| 2026-05-05 02:45 | -2.25215 | 113.94495 | 34907 ft | 453 kts | 60° |
| 2026-05-05 02:46 | -2.22569 | 114.00152 | 34907 ft | 453 kts | 66° |
| 2026-05-05 02:46 | -2.20045 | 114.05918 | 34906 ft | 453 kts | 66° |
| 2026-05-05 02:47 | -2.17510 | 114.11689 | 34909 ft | 453 kts | 66° |
| 2026-05-05 02:47 | -2.14980 | 114.17458 | 34907 ft | 453 kts | 66° |
| 2026-05-05 02:48 | -2.12446 | 114.23237 | 34912 ft | 454 kts | 66° |
| 2026-05-05 02:48 | -2.09904 | 114.29010 | 34910 ft | 454 kts | 66° |
| 2026-05-05 02:49 | -2.07361 | 114.34784 | 34908 ft | 454 kts | 66° |
| 2026-05-05 02:49 | -2.04822 | 114.40564 | 34910 ft | 454 kts | 66° |
| 2026-05-05 02:50 | -2.02282 | 114.46340 | 34911 ft | 454 kts | 66° |
| 2026-05-05 02:50 | -1.99744 | 114.52124 | 34913 ft | 454 kts | 66° |
| 2026-05-05 02:51 | -1.97206 | 114.57903 | 34912 ft | 454 kts | 66° |
| 2026-05-05 02:51 | -1.94660 | 114.63686 | 34918 ft | 454 kts | 66° |
| 2026-05-05 02:52 | -1.92120 | 114.69461 | 34921 ft | 454 kts | 66° |
| 2026-05-05 02:52 | -1.89586 | 114.75240 | 34921 ft | 454 kts | 66° |
| 2026-05-05 02:53 | -1.87048 | 114.81018 | 34922 ft | 454 kts | 66° |
| 2026-05-05 02:53 | -1.84527 | 114.86751 | 34921 ft | 454 kts | 66° |
| 2026-05-05 02:54 | -1.81988 | 114.92527 | 34923 ft | 454 kts | 66° |
| 2026-05-05 02:54 | -1.79447 | 114.98301 | 34924 ft | 454 kts | 66° |
| 2026-05-05 02:55 | -1.76903 | 115.04072 | 34928 ft | 454 kts | 66° |
| 2026-05-05 02:55 | -1.74361 | 115.09853 | 34927 ft | 454 kts | 66° |
| 2026-05-05 02:56 | -1.71823 | 115.15627 | 34925 ft | 454 kts | 66° |
| 2026-05-05 02:56 | -1.69281 | 115.21399 | 34922 ft | 454 kts | 66° |
| 2026-05-05 02:57 | -1.66791 | 115.27196 | 34928 ft | 454 kts | 68° |
| 2026-05-05 02:57 | -1.64419 | 115.33045 | 34932 ft | 454 kts | 69° |
| 2026-05-05 02:58 | -1.62064 | 115.38905 | 34934 ft | 454 kts | 68° |
| 2026-05-05 02:58 | -1.59675 | 115.44748 | 34935 ft | 454 kts | 68° |
| 2026-05-05 02:59 | -1.57267 | 115.50581 | 34936 ft | 454 kts | 68° |
| 2026-05-05 02:59 | -1.54867 | 115.56417 | 34940 ft | 454 kts | 68° |
| 2026-05-05 03:00 | -1.52472 | 115.62253 | 34940 ft | 453 kts | 68° |
| 2026-05-05 03:00 | -1.50080 | 115.68082 | 34941 ft | 453 kts | 68° |
| 2026-05-05 03:01 | -1.47691 | 115.73905 | 34940 ft | 453 kts | 68° |
| 2026-05-05 03:01 | -1.45300 | 115.79726 | 34937 ft | 453 kts | 68° |
| 2026-05-05 03:02 | -1.42906 | 115.85545 | 34933 ft | 453 kts | 68° |
| 2026-05-05 03:02 | -1.40534 | 115.91328 | 34930 ft | 453 kts | 68° |
| 2026-05-05 03:03 | -1.38146 | 115.97148 | 34923 ft | 453 kts | 68° |
| 2026-05-05 03:03 | -1.35748 | 116.02972 | 34917 ft | 453 kts | 68° |
| 2026-05-05 03:04 | -1.33352 | 116.08798 | 34914 ft | 453 kts | 68° |
| 2026-05-05 03:04 | -1.30955 | 116.14623 | 34914 ft | 453 kts | 68° |
| 2026-05-05 03:05 | -1.28559 | 116.20457 | 34904 ft | 454 kts | 68° |
| 2026-05-05 03:05 | -1.26161 | 116.26294 | 34913 ft | 454 kts | 68° |
| 2026-05-05 03:06 | -1.23758 | 116.32131 | 34905 ft | 454 kts | 68° |
| 2026-05-05 03:06 | -1.21354 | 116.37968 | 34903 ft | 454 kts | 68° |
| 2026-05-05 03:07 | -1.18954 | 116.43812 | 34897 ft | 455 kts | 68° |
| 2026-05-05 03:07 | -1.16558 | 116.49662 | 34891 ft | 455 kts | 68° |
| 2026-05-05 03:08 | -1.14153 | 116.55509 | 34895 ft | 455 kts | 68° |
| 2026-05-05 03:08 | -1.11744 | 116.61360 | 34905 ft | 455 kts | 68° |
| 2026-05-05 03:09 | -1.09336 | 116.67206 | 34905 ft | 455 kts | 68° |
| 2026-05-05 03:09 | -1.06994 | 116.72882 | 34903 ft | 455 kts | 68° |
| 2026-05-05 03:10 | -1.04587 | 116.78730 | 34895 ft | 455 kts | 68° |
| 2026-05-05 03:10 | -1.02183 | 116.84585 | 34899 ft | 455 kts | 68° |
| 2026-05-05 03:11 | -0.99779 | 116.90436 | 34898 ft | 455 kts | 68° |
| 2026-05-05 03:11 | -0.97373 | 116.96292 | 34896 ft | 455 kts | 68° |
| 2026-05-05 03:12 | -0.94970 | 117.02148 | 34895 ft | 456 kts | 68° |
| 2026-05-05 03:12 | -0.92583 | 117.07964 | 34891 ft | 456 kts | 68° |
| 2026-05-05 03:13 | -0.90176 | 117.13823 | 34892 ft | 456 kts | 68° |
| 2026-05-05 03:13 | -0.87762 | 117.19680 | 34900 ft | 456 kts | 68° |
| 2026-05-05 03:14 | -0.85353 | 117.25534 | 34893 ft | 456 kts | 68° |
| 2026-05-05 03:14 | -0.82943 | 117.31393 | 34895 ft | 456 kts | 68° |
| 2026-05-05 03:15 | -0.80532 | 117.37254 | 34893 ft | 456 kts | 68° |
| 2026-05-05 03:15 | -0.78130 | 117.43116 | 34896 ft | 456 kts | 69° |
| 2026-05-05 03:16 | -0.75721 | 117.48976 | 34899 ft | 456 kts | 68° |
| 2026-05-05 03:16 | -0.73308 | 117.54835 | 34910 ft | 456 kts | 68° |
| 2026-05-05 03:17 | -0.70906 | 117.60682 | 34906 ft | 455 kts | 69° |
| 2026-05-05 03:17 | -0.68519 | 117.66496 | 34918 ft | 455 kts | 68° |
| 2026-05-05 03:18 | -0.66139 | 117.72289 | 34918 ft | 454 kts | 68° |
| 2026-05-05 03:18 | -0.63745 | 117.78122 | 34923 ft | 454 kts | 68° |
| 2026-05-05 03:19 | -0.60155 | 117.86866 | 34917 ft | 453 kts | 68° |
| 2026-05-05 03:19 | -0.57758 | 117.92683 | 34914 ft | 453 kts | 68° |
| 2026-05-05 03:20 | -0.55370 | 117.98499 | 34910 ft | 452 kts | 68° |
| 2026-05-05 03:20 | -0.52989 | 118.04305 | 34917 ft | 452 kts | 68° |
| 2026-05-05 03:21 | -0.50600 | 118.10115 | 34909 ft | 452 kts | 68° |
| 2026-05-05 03:21 | -0.48211 | 118.15917 | 34912 ft | 451 kts | 68° |
| 2026-05-05 03:22 | -0.45820 | 118.21717 | 34909 ft | 451 kts | 68° |
| 2026-05-05 03:22 | -0.43834 | 118.26539 | 34913 ft | 452 kts | 68° |
| 2026-05-05 03:23 | -0.41445 | 118.32344 | 34908 ft | 452 kts | 68° |
| 2026-05-05 03:23 | -0.39059 | 118.38151 | 34900 ft | 452 kts | 69° |
| 2026-05-05 03:24 | -0.36673 | 118.43962 | 34897 ft | 452 kts | 69° |
| 2026-05-05 03:24 | -0.34408 | 118.49815 | 34900 ft | 452 kts | 71° |
| 2026-05-05 03:25 | -0.32283 | 118.55735 | 34897 ft | 452 kts | 71° |
| 2026-05-05 03:25 | -0.30150 | 118.61649 | 34893 ft | 453 kts | 71° |
| 2026-05-05 03:26 | -0.27979 | 118.67557 | 34894 ft | 453 kts | 70° |
| 2026-05-05 03:26 | -0.25792 | 118.73459 | 34889 ft | 453 kts | 70° |
| 2026-05-05 03:27 | -0.23605 | 118.79376 | 34892 ft | 454 kts | 70° |
| 2026-05-05 03:27 | -0.21428 | 118.85293 | 34892 ft | 454 kts | 70° |
| 2026-05-05 03:28 | -0.19251 | 118.91218 | 34891 ft | 454 kts | 70° |
| 2026-05-05 03:28 | -0.17068 | 118.97139 | 34895 ft | 454 kts | 70° |
| 2026-05-05 03:29 | -0.14879 | 119.03065 | 34887 ft | 455 kts | 70° |
| 2026-05-05 03:29 | -0.12690 | 119.08992 | 34893 ft | 455 kts | 70° |
| 2026-05-05 03:30 | -0.10506 | 119.14920 | 34896 ft | 455 kts | 70° |
| 2026-05-05 03:30 | -0.08315 | 119.20856 | 34896 ft | 455 kts | 70° |
| 2026-05-05 03:31 | -0.06125 | 119.26796 | 34890 ft | 456 kts | 70° |
| 2026-05-05 03:31 | -0.03937 | 119.32743 | 34891 ft | 456 kts | 70° |
| 2026-05-05 03:32 | -0.01748 | 119.38696 | 34891 ft | 457 kts | 70° |
| 2026-05-05 03:32 | 0.00444 | 119.44651 | 34891 ft | 457 kts | 70° |
| 2026-05-05 03:33 | 0.02638 | 119.50618 | 34892 ft | 457 kts | 71° |
| 2026-05-05 03:33 | 0.04559 | 119.56672 | 34895 ft | 457 kts | 76° |
| 2026-05-05 03:34 | 0.06142 | 119.62821 | 34889 ft | 457 kts | 77° |
| 2026-05-05 03:34 | 0.07718 | 119.68974 | 34900 ft | 457 kts | 76° |
| 2026-05-05 03:35 | 0.09380 | 119.75104 | 34905 ft | 457 kts | 75° |
| 2026-05-05 03:35 | 0.11092 | 119.81225 | 34912 ft | 457 kts | 75° |
| 2026-05-05 03:36 | 0.12784 | 119.87343 | 34909 ft | 457 kts | 76° |
| 2026-05-05 03:36 | 0.14449 | 119.93420 | 34916 ft | 456 kts | 76° |
| 2026-05-05 03:37 | 0.16123 | 119.99530 | 34913 ft | 456 kts | 76° |
| 2026-05-05 03:37 | 0.17805 | 120.05635 | 34916 ft | 455 kts | 76° |
| 2026-05-05 03:38 | 0.19480 | 120.11733 | 34919 ft | 455 kts | 76° |
| 2026-05-05 03:38 | 0.21154 | 120.17830 | 34918 ft | 455 kts | 76° |
| 2026-05-05 03:39 | 0.22822 | 120.23933 | 34919 ft | 455 kts | 76° |
| 2026-05-05 03:39 | 0.24492 | 120.30027 | 34913 ft | 455 kts | 76° |
| 2026-05-05 03:40 | 0.26167 | 120.36125 | 34912 ft | 455 kts | 76° |
| 2026-05-05 03:40 | 0.27840 | 120.42226 | 34904 ft | 455 kts | 76° |
| 2026-05-05 03:41 | 0.29517 | 120.48327 | 34913 ft | 455 kts | 76° |
| 2026-05-05 03:41 | 0.31197 | 120.54427 | 34909 ft | 455 kts | 76° |
| 2026-05-05 03:42 | 0.32865 | 120.60524 | 34910 ft | 455 kts | 76° |
| 2026-05-05 03:42 | 0.34530 | 120.66619 | 34911 ft | 455 kts | 76° |
| 2026-05-05 03:43 | 0.36198 | 120.72705 | 34916 ft | 454 kts | 76° |
| 2026-05-05 03:43 | 0.37874 | 120.78790 | 34910 ft | 454 kts | 76° |
| 2026-05-05 03:44 | 0.39546 | 120.84866 | 34915 ft | 454 kts | 76° |
| 2026-05-05 03:44 | 0.41211 | 120.90947 | 34922 ft | 453 kts | 76° |
| 2026-05-05 03:45 | 0.42863 | 120.96980 | 34918 ft | 453 kts | 76° |
| 2026-05-05 03:45 | 0.44526 | 121.03049 | 34916 ft | 453 kts | 76° |
| 2026-05-05 03:46 | 0.46198 | 121.09114 | 34917 ft | 453 kts | 76° |
| 2026-05-05 03:46 | 0.47867 | 121.15177 | 34919 ft | 452 kts | 76° |
| 2026-05-05 03:47 | 0.49529 | 121.21237 | 34920 ft | 452 kts | 76° |
| 2026-05-05 03:47 | 0.51188 | 121.27293 | 34923 ft | 452 kts | 76° |
| 2026-05-05 03:48 | 0.52841 | 121.33352 | 34921 ft | 452 kts | 76° |
| 2026-05-05 03:48 | 0.54502 | 121.39404 | 34914 ft | 452 kts | 76° |
| 2026-05-05 03:49 | 0.56171 | 121.45462 | 34915 ft | 452 kts | 76° |
| 2026-05-05 03:49 | 0.57829 | 121.51518 | 34907 ft | 452 kts | 76° |
| 2026-05-05 03:50 | 0.59491 | 121.57577 | 34909 ft | 452 kts | 76° |
| 2026-05-05 03:50 | 0.61156 | 121.63635 | 34908 ft | 452 kts | 76° |
| 2026-05-05 03:51 | 0.62818 | 121.69699 | 34911 ft | 452 kts | 76° |
| 2026-05-05 03:51 | 0.64482 | 121.75764 | 34905 ft | 452 kts | 76° |
| 2026-05-05 03:52 | 0.66145 | 121.81822 | 34910 ft | 453 kts | 76° |
| 2026-05-05 03:52 | 0.67802 | 121.87888 | 34913 ft | 453 kts | 76° |
| 2026-05-05 03:53 | 0.69466 | 121.93958 | 34911 ft | 453 kts | 76° |
| 2026-05-05 03:53 | 0.71126 | 122.00019 | 34914 ft | 453 kts | 76° |
| 2026-05-05 03:54 | 0.72789 | 122.06090 | 34910 ft | 453 kts | 76° |
| 2026-05-05 03:54 | 0.74451 | 122.12152 | 34909 ft | 453 kts | 76° |
| 2026-05-05 03:55 | 0.76116 | 122.18218 | 34902 ft | 452 kts | 76° |
| 2026-05-05 03:55 | 0.77784 | 122.24278 | 34899 ft | 452 kts | 76° |
| 2026-05-05 03:56 | 0.79446 | 122.30338 | 34903 ft | 452 kts | 76° |
| 2026-05-05 03:56 | 0.81102 | 122.36406 | 34898 ft | 452 kts | 76° |
| 2026-05-05 03:57 | 0.82757 | 122.42468 | 34899 ft | 452 kts | 76° |
| 2026-05-05 03:57 | 0.84417 | 122.48536 | 34894 ft | 452 kts | 76° |
| 2026-05-05 03:58 | 0.86080 | 122.54598 | 34889 ft | 453 kts | 76° |
| 2026-05-05 03:58 | 0.87747 | 122.60666 | 34881 ft | 453 kts | 76° |
| 2026-05-05 03:59 | 0.89418 | 122.66731 | 34879 ft | 453 kts | 76° |
| 2026-05-05 03:59 | 0.91086 | 122.72806 | 34881 ft | 453 kts | 76° |
| 2026-05-05 04:00 | 0.92746 | 122.78878 | 34880 ft | 453 kts | 76° |
| 2026-05-05 04:00 | 0.94411 | 122.84953 | 34880 ft | 454 kts | 76° |
| 2026-05-05 04:01 | 0.96082 | 122.91036 | 34876 ft | 454 kts | 76° |
| 2026-05-05 04:01 | 0.97754 | 122.97118 | 34877 ft | 454 kts | 76° |
| 2026-05-05 04:02 | 0.99422 | 123.03199 | 34878 ft | 454 kts | 76° |
| 2026-05-05 04:02 | 1.01089 | 123.09278 | 34884 ft | 454 kts | 76° |
| 2026-05-05 04:03 | 1.02754 | 123.15338 | 34882 ft | 454 kts | 76° |
| 2026-05-05 04:03 | 1.04425 | 123.21432 | 34879 ft | 453 kts | 76° |
| 2026-05-05 04:04 | 1.06601 | 123.27337 | 34883 ft | 455 kts | 62° |
| 2026-05-05 04:04 | 1.10336 | 123.32449 | 34868 ft | 457 kts | 53° |
| 2026-05-05 04:05 | 1.12310 | 123.34942 | 34560 ft | 458 kts | 53° |
| 2026-05-05 04:05 | 1.14293 | 123.37462 | 33542 ft | 465 kts | 53° |
| 2026-05-05 04:05 | 1.16302 | 123.40029 | 32437 ft | 472 kts | 53° |
| 2026-05-05 04:05 | 1.18334 | 123.42631 | 31396 ft | 478 kts | 53° |
| 2026-05-05 04:06 | 1.20392 | 123.45261 | 30400 ft | 482 kts | 53° |
| 2026-05-05 04:06 | 1.22448 | 123.47880 | 29796 ft | 477 kts | 53° |
| 2026-05-05 04:06 | 1.23801 | 123.49603 | 29266 ft | 474 kts | 53° |
| 2026-05-05 04:06 | 1.26479 | 123.53012 | 28368 ft | 467 kts | 53° |
| 2026-05-05 04:07 | 1.28499 | 123.55587 | 27691 ft | 462 kts | 53° |
| 2026-05-05 04:07 | 1.30443 | 123.58062 | 27041 ft | 457 kts | 53° |
| 2026-05-05 04:07 | 1.32371 | 123.60569 | 26386 ft | 452 kts | 57° |
| 2026-05-05 04:07 | 1.33821 | 123.63332 | 25737 ft | 447 kts | 70° |
| 2026-05-05 04:08 | 1.34406 | 123.65333 | 25304 ft | 443 kts | 79° |
| 2026-05-05 04:08 | 1.34587 | 123.69368 | 24438 ft | 438 kts | 97° |
| 2026-05-05 04:08 | 1.34194 | 123.71379 | 24020 ft | 436 kts | 106° |
| 2026-05-05 04:08 | 1.32785 | 123.75119 | 23150 ft | 432 kts | 111° |
| 2026-05-05 04:09 | 1.32040 | 123.77001 | 22717 ft | 430 kts | 111° |
| 2026-05-05 04:09 | 1.30615 | 123.80650 | 22002 ft | 422 kts | 111° |
| 2026-05-05 04:09 | 1.29901 | 123.82488 | 21648 ft | 418 kts | 111° |
| 2026-05-05 04:09 | 1.28876 | 123.85126 | 21241 ft | 410 kts | 111° |
| 2026-05-05 04:10 | 1.27845 | 123.87773 | 20796 ft | 404 kts | 111° |
| 2026-05-05 04:10 | 1.26831 | 123.90365 | 20378 ft | 398 kts | 111° |
| 2026-05-05 04:10 | 1.25827 | 123.92925 | 19957 ft | 393 kts | 111° |
| 2026-05-05 04:10 | 1.24835 | 123.95458 | 19541 ft | 391 kts | 111° |
| 2026-05-05 04:11 | 1.23847 | 123.97980 | 19129 ft | 388 kts | 111° |
| 2026-05-05 04:11 | 1.22866 | 124.00483 | 18717 ft | 386 kts | 111° |
| 2026-05-05 04:11 | 1.21887 | 124.02973 | 18300 ft | 384 kts | 111° |
| 2026-05-05 04:11 | 1.20912 | 124.05448 | 17859 ft | 382 kts | 111° |
| 2026-05-05 04:12 | 1.19946 | 124.07906 | 17462 ft | 379 kts | 111° |
| 2026-05-05 04:12 | 1.18988 | 124.10352 | 17060 ft | 377 kts | 111° |
| 2026-05-05 04:12 | 1.18037 | 124.12786 | 16653 ft | 375 kts | 111° |
| 2026-05-05 04:12 | 1.17091 | 124.15205 | 16262 ft | 373 kts | 111° |
| 2026-05-05 04:13 | 1.16149 | 124.17607 | 15864 ft | 370 kts | 111° |
| 2026-05-05 04:13 | 1.15355 | 124.20046 | 15469 ft | 368 kts | 102° |
| 2026-05-05 04:13 | 1.15099 | 124.22577 | 15081 ft | 366 kts | 89° |
| 2026-05-05 04:13 | 1.15402 | 124.25092 | 14697 ft | 364 kts | 77° |
| 2026-05-05 04:14 | 1.15994 | 124.27548 | 14306 ft | 363 kts | 77° |
| 2026-05-05 04:14 | 1.16576 | 124.29994 | 13924 ft | 361 kts | 77° |
| 2026-05-05 04:14 | 1.17150 | 124.32428 | 13525 ft | 359 kts | 77° |
| 2026-05-05 04:14 | 1.17717 | 124.34851 | 13128 ft | 357 kts | 77° |
| 2026-05-05 04:15 | 1.18282 | 124.37263 | 12751 ft | 356 kts | 77° |
| 2026-05-05 04:15 | 1.18848 | 124.39667 | 12397 ft | 354 kts | 77° |
| 2026-05-05 04:15 | 1.19409 | 124.42065 | 12062 ft | 354 kts | 77° |
| 2026-05-05 04:15 | 1.19967 | 124.44453 | 11688 ft | 352 kts | 77° |
| 2026-05-05 04:16 | 1.20520 | 124.46830 | 11309 ft | 351 kts | 77° |
| 2026-05-05 04:16 | 1.21073 | 124.49195 | 10946 ft | 349 kts | 77° |
| 2026-05-05 04:16 | 1.21624 | 124.51553 | 10570 ft | 348 kts | 77° |
| 2026-05-05 04:16 | 1.22170 | 124.53877 | 10367 ft | 337 kts | 77° |
| 2026-05-05 04:17 | 1.22698 | 124.56117 | 10249 ft | 325 kts | 77° |
| 2026-05-05 04:17 | 1.23179 | 124.58285 | 10130 ft | 314 kts | 78° |
| 2026-05-05 04:17 | 1.23622 | 124.60388 | 9939 ft | 306 kts | 78° |
| 2026-05-05 04:17 | 1.24046 | 124.62459 | 9797 ft | 305 kts | 78° |
| 2026-05-05 04:18 | 1.24468 | 124.64523 | 9478 ft | 302 kts | 78° |
| 2026-05-05 04:18 | 1.24889 | 124.66574 | 9177 ft | 300 kts | 78° |
| 2026-05-05 04:18 | 1.25309 | 124.68608 | 8883 ft | 298 kts | 78° |
| 2026-05-05 04:18 | 1.25723 | 124.70598 | 8595 ft | 296 kts | 78° |
| 2026-05-05 04:19 | 1.26142 | 124.72612 | 8303 ft | 295 kts | 78° |
| 2026-05-05 04:19 | 1.26544 | 124.74613 | 8013 ft | 293 kts | 82° |
| 2026-05-05 04:19 | 1.26657 | 124.76649 | 7456 ft | 299 kts | 89° |
| 2026-05-05 04:19 | 1.26692 | 124.78769 | 6700 ft | 311 kts | 89° |
| 2026-05-05 04:20 | 1.26722 | 124.80921 | 6147 ft | 303 kts | 89° |
| 2026-05-05 04:20 | 1.26749 | 124.82950 | 5977 ft | 280 kts | 89° |
| 2026-05-05 04:20 | 1.26777 | 124.84815 | 5861 ft | 258 kts | 89° |
| 2026-05-05 04:20 | 1.26805 | 124.86575 | 5755 ft | 251 kts | 89° |
| 2026-05-05 04:21 | 1.26837 | 124.88314 | 5639 ft | 249 kts | 87° |
| 2026-05-05 04:21 | 1.27274 | 124.89964 | 5516 ft | 247 kts | 60° |
| 2026-05-05 04:21 | 1.28418 | 124.91218 | 5451 ft | 246 kts | 32° |
| 2026-05-05 04:21 | 1.30003 | 124.91803 | 5216 ft | 244 kts | 5° |
| 2026-05-05 04:22 | 1.31699 | 124.91876 | 4904 ft | 244 kts | 1° |
| 2026-05-05 04:22 | 1.33397 | 124.91922 | 4563 ft | 245 kts | 1° |
| 2026-05-05 04:22 | 1.35102 | 124.91976 | 4214 ft | 245 kts | 1° |
| 2026-05-05 04:22 | 1.36808 | 124.92033 | 3871 ft | 246 kts | 1° |
| 2026-05-05 04:23 | 1.38506 | 124.92090 | 3522 ft | 242 kts | 1° |
| 2026-05-05 04:23 | 1.40151 | 124.92144 | 3194 ft | 229 kts | 1° |
| 2026-05-05 04:23 | 1.41678 | 124.92195 | 2890 ft | 211 kts | 1° |
| 2026-05-05 04:23 | 1.43077 | 124.92242 | 2627 ft | 192 kts | 1° |
| 2026-05-05 04:24 | 1.44361 | 124.92285 | 2364 ft | 179 kts | 1° |
| 2026-05-05 04:24 | 1.45580 | 124.92325 | 2110 ft | 169 kts | 1° |
| 2026-05-05 04:24 | 1.46701 | 124.92362 | 1879 ft | 155 kts | 1° |
| 2026-05-05 04:25 | 1.48737 | 124.92429 | 1464 ft | 142 kts | 1° |
| 2026-05-05 04:25 | 1.49702 | 124.92461 | 1263 ft | 141 kts | 2° |
| 2026-05-05 04:25 | 1.50679 | 124.92494 | 1059 ft | 138 kts | 1° |
| 2026-05-05 04:25 | 1.51639 | 124.92526 | 845 ft | 135 kts | 2° |
| 2026-05-05 04:26 | 1.52599 | 124.92562 | 632 ft | 136 kts | 2° |
| 2026-05-05 04:26 | 1.53545 | 124.92586 | 408 ft | 136 kts | 3° |
| 2026-05-05 04:26 | 1.54428 | 124.92607 | 336 ft | 110 kts | 2° |
| 2026-05-05 04:26 | 1.55021 | 124.92632 | 337 ft | 60 kts | 2° |
| 2026-05-05 04:27 | 1.55338 | 124.92645 | 336 ft | 41 kts | 2° |
| 2026-05-05 04:27 | 1.55592 | 124.92654 | 336 ft | 22 kts | 1° |
| 2026-05-05 04:27 | 1.55668 | 124.92565 | 336 ft | 19 kts | 274° |
| 2026-05-05 04:27 | 1.55591 | 124.92491 | 336 ft | 17 kts | 181° |
| 2026-05-05 04:28 | 1.55477 | 124.92483 | 336 ft | 16 kts | 184° |
| 2026-05-05 04:28 | 1.55372 | 124.92480 | 336 ft | 14 kts | 181° |
| 2026-05-05 04:28 | 1.55256 | 124.92476 | 336 ft | 19 kts | 181° |
| 2026-05-05 04:28 | 1.55103 | 124.92472 | 336 ft | 25 kts | 181° |
| 2026-05-05 04:29 | 1.54924 | 124.92466 | 334 ft | 27 kts | 181° |
| 2026-05-05 04:29 | 1.54731 | 124.92460 | 333 ft | 26 kts | 182° |
| 2026-05-05 04:29 | 1.54565 | 124.92455 | 334 ft | 25 kts | 181° |
| 2026-05-05 04:29 | 1.54430 | 124.92448 | 336 ft | 16 kts | 193° |
| 2026-05-05 04:30 | 1.54397 | 124.92388 | 336 ft | 9 kts | 271° |
| 2026-05-05 04:30 | 1.54398 | 124.92347 | 336 ft | 1 kts | 272° |
| 2026-05-05 04:30 | 1.54398 | 124.92342 | 336 ft | 0 kts | 272° |